Time;durP1;ratioP1;P1;durP2;ratioP2;P2;SDS_P1;SDS_P2;PMS_P1;PMS_P2;Temp;Humidity;BMP_temperature;BMP_pressure;BME280_temperature;BME280_humidity;BME280_pressure;Samples;Min_cycle;Max_cycle;Signal;HPM_P1;HPM_P2
2021/09/25 00:00:49;;;;;;;17.27;5.07;;;17.10;99.90;;;;;;4977767;28;20141;-83
2021/09/25 00:03:18;;;;;;;11.05;5.13;;;17.10;99.90;;;;;;4951340;28;20053;-83
2021/09/25 00:06:00;;;;;;;16.63;5.18;;;17.10;99.90;;;;;;4967301;28;20052;-82
2021/09/25 00:11:29;;;;;;;14.30;5.20;;;17.10;99.90;;;;;;4978885;28;20524;-80
2021/09/25 00:13:58;;;;;;;12.35;5.03;;;16.70;99.90;;;;;;4989367;28;20443;-82
2021/09/25 00:16:28;;;;;;;11.73;6.15;;;17.10;99.90;;;;;;4972664;28;20046;-81
2021/09/25 00:19:01;;;;;;;14.13;5.63;;;17.00;99.90;;;;;;4969854;28;20054;-86
2021/09/25 00:21:34;;;;;;;12.48;5.30;;;17.00;99.90;;;;;;4979580;28;20046;-83
2021/09/25 00:24:04;;;;;;;12.68;4.85;;;17.10;99.90;;;;;;4967489;28;20053;-81
2021/09/25 00:26:35;;;;;;;11.57;5.67;;;17.00;99.90;;;;;;4986806;28;20047;-82
2021/09/25 00:29:04;;;;;;;14.88;5.40;;;17.00;99.90;;;;;;4998940;28;20049;-84
2021/09/25 00:31:34;;;;;;;13.82;5.50;;;17.00;99.90;;;;;;4995809;28;20046;-81
2021/09/25 00:34:04;;;;;;;21.58;5.20;;;16.90;99.90;;;;;;4970835;28;20054;-82
2021/09/25 00:36:47;;;;;;;15.77;6.32;;;16.90;99.90;;;;;;4970097;28;20054;-81
2021/09/25 00:39:16;;;;;;;16.42;6.70;;;16.90;99.90;;;;;;4973348;28;20117;-80
2021/09/25 00:41:45;;;;;;;15.82;5.25;;;16.90;99.90;;;;;;4979974;28;20049;-82
2021/09/25 00:44:13;;;;;;;14.38;5.50;;;16.90;99.90;;;;;;4960004;28;20051;-84
2021/09/25 00:46:41;;;;;;;15.75;5.28;;;16.90;99.90;;;;;;4974736;28;20498;-81
2021/09/25 00:49:19;;;;;;;16.17;6.10;;;16.90;99.90;;;;;;4993892;28;20042;-82
2021/09/25 00:51:50;;;;;;;18.83;6.28;;;16.90;99.90;;;;;;4991413;28;20077;-82
2021/09/25 00:54:26;;;;;;;14.60;5.13;;;16.90;99.90;;;;;;4975510;28;20053;-81
2021/09/25 00:56:55;;;;;;;10.95;5.55;;;17.70;99.90;;;;;;4983995;28;20052;-80
2021/09/25 00:59:25;;;;;;;17.05;5.95;;;16.80;99.90;;;;;;5001309;28;20076;-82
2021/09/25 01:01:58;;;;;;;17.10;6.25;;;16.80;99.90;;;;;;4978517;28;20054;-81
2021/09/25 01:04:37;;;;;;;22.08;6.45;;;16.80;99.90;;;;;;4975159;28;20038;-81
2021/09/25 01:07:06;;;;;;;15.55;7.45;;;16.80;99.90;;;;;;4962263;28;20051;-80
2021/09/25 01:09:34;;;;;;;19.83;6.35;;;16.80;99.90;;;;;;5000267;28;20042;-82
2021/09/25 01:12:03;;;;;;;13.98;6.65;;;16.80;99.90;;;;;;4979231;28;20049;-81
2021/09/25 01:14:31;;;;;;;17.05;6.13;;;16.80;99.90;;;;;;4979653;28;20050;-82
2021/09/25 01:17:17;;;;;;;16.90;6.97;;;16.80;99.90;;;;;;4978630;28;20488;-82
2021/09/25 01:20:08;;;;;;;17.17;7.97;;;16.80;99.90;;;;;;4984293;28;20049;-82
2021/09/25 01:22:38;;;;;;;16.92;7.47;;;16.90;99.90;;;;;;4988052;28;20058;-81
2021/09/25 01:25:10;;;;;;;16.85;7.35;;;16.90;99.90;;;;;;4994905;28;20042;-81
2021/09/25 01:27:39;;;;;;;18.25;7.95;;;16.90;99.90;;;;;;4988742;28;20057;-82
2021/09/25 01:30:15;;;;;;;22.55;10.07;;;16.90;99.90;;;;;;4995163;28;20051;-83
2021/09/25 01:32:45;;;;;;;23.85;10.45;;;16.90;99.90;;;;;;4955590;28;20066;-82
2021/09/25 01:35:16;;;;;;;18.25;8.70;;;16.90;99.90;;;;;;4972750;28;20043;-82
2021/09/25 01:37:48;;;;;;;15.70;8.55;;;17.00;99.90;;;;;;4978733;28;20050;-82
2021/09/25 01:40:20;;;;;;;16.38;8.60;;;17.00;99.90;;;;;;4995609;28;20058;-82
2021/09/25 01:42:49;;;;;;;16.85;8.15;;;17.00;99.90;;;;;;4999168;28;20057;-84
2021/09/25 01:45:22;;;;;;;18.15;7.93;;;17.00;99.90;;;;;;4980647;28;20058;-81
2021/09/25 01:47:58;;;;;;;20.33;10.25;;;17.10;99.90;;;;;;4970617;28;20049;-80
2021/09/25 01:50:37;;;;;;;27.80;11.40;;;16.90;99.90;;;;;;4980410;28;20057;-83
2021/09/25 01:53:07;;;;;;;17.70;8.32;;;17.10;99.90;;;;;;4997771;28;20052;-82
2021/09/25 01:55:36;;;;;;;19.27;9.27;;;17.10;99.90;;;;;;4974953;28;20077;-82
2021/09/25 01:58:08;;;;;;;18.52;9.27;;;17.10;99.90;;;;;;4986153;28;20442;-80
2021/09/25 02:00:47;;;;;;;23.80;9.57;;;17.10;99.90;;;;;;4975072;28;20057;-83
2021/09/25 02:03:17;;;;;;;20.58;10.60;;;17.10;99.90;;;;;;4969189;28;20046;-81
2021/09/25 02:05:46;;;;;;;21.60;12.38;;;17.10;99.90;;;;;;4989983;28;20038;-82
2021/09/25 02:08:14;;;;;;;21.77;10.98;;;17.10;99.90;;;;;;4996420;28;20057;-82
2021/09/25 02:10:42;;;;;;;27.58;13.73;;;17.10;99.90;;;;;;4978333;28;20050;-81
2021/09/25 02:13:10;;;;;;;20.60;11.82;;;17.10;99.90;;;;;;4949700;29;20055;-82
2021/09/25 02:15:40;;;;;;;25.50;13.18;;;17.10;99.90;;;;;;4976625;28;20411;-82
2021/09/25 02:18:08;;;;;;;23.58;12.82;;;17.10;99.90;;;;;;4977207;28;20043;-81
2021/09/25 02:20:37;;;;;;;25.40;13.63;;;17.10;99.90;;;;;;4995948;28;20054;-81
2021/09/25 02:23:06;;;;;;;25.90;14.05;;;17.10;99.90;;;;;;4954153;28;20050;-82
2021/09/25 02:25:36;;;;;;;30.52;13.57;;;17.00;99.90;;;;;;4977760;28;20123;-82
2021/09/25 02:28:05;;;;;;;28.35;13.55;;;17.10;99.90;;;;;;4962535;28;20408;-80
2021/09/25 02:30:35;;;;;;;31.88;13.68;;;17.10;99.90;;;;;;4964549;28;20066;-80
2021/09/25 02:33:07;;;;;;;25.58;13.48;;;17.00;99.90;;;;;;4988232;28;20050;-80
2021/09/25 02:35:35;;;;;;;29.17;13.55;;;17.10;99.90;;;;;;4991182;28;20043;-80
2021/09/25 02:38:04;;;;;;;35.15;14.25;;;17.00;99.90;;;;;;4981869;28;20046;-80
2021/09/25 02:40:32;;;;;;;27.85;15.45;;;17.00;99.90;;;;;;4981118;28;20054;-81
2021/09/25 02:43:00;;;;;;;28.98;15.88;;;17.00;99.90;;;;;;4974199;28;20057;-81
2021/09/25 02:45:28;;;;;;;32.88;16.30;;;17.00;99.90;;;;;;4992963;28;20049;-81
2021/09/25 02:47:57;;;;;;;31.10;17.67;;;17.00;99.90;;;;;;4985366;28;20050;-81
2021/09/25 02:50:25;;;;;;;31.77;16.42;;;17.00;99.90;;;;;;4964982;28;20050;-81
2021/09/25 02:52:55;;;;;;;30.77;17.38;;;17.00;99.90;;;;;;4937131;29;20047;-83
2021/09/25 02:55:25;;;;;;;28.80;16.70;;;17.00;99.90;;;;;;4979370;28;20053;-82
2021/09/25 02:57:54;;;;;;;32.75;18.48;;;17.00;99.90;;;;;;4969646;28;20055;-80
2021/09/25 03:00:25;;;;;;;29.05;16.80;;;17.00;99.90;;;;;;4975768;28;20051;-81
2021/09/25 03:02:52;;;;;;;30.80;16.77;;;17.00;99.90;;;;;;4977970;28;20046;-79
2021/09/25 03:05:22;;;;;;;35.20;18.75;;;17.00;99.90;;;;;;4999326;28;20054;-83
2021/09/25 03:07:52;;;;;;;34.97;17.60;;;17.00;99.90;;;;;;4985851;28;20057;-82
2021/09/25 03:10:20;;;;;;;32.63;17.30;;;17.00;99.90;;;;;;4958984;28;20055;-84
2021/09/25 03:12:50;;;;;;;32.72;16.92;;;17.00;99.90;;;;;;4981809;28;20082;-81
2021/09/25 03:15:19;;;;;;;34.75;17.35;;;17.00;99.90;;;;;;4991426;28;20047;-80
2021/09/25 03:17:47;;;;;;;32.83;18.98;;;17.00;99.90;;;;;;4967069;28;20065;-82
2021/09/25 03:20:17;;;;;;;33.85;18.10;;;17.00;99.90;;;;;;4966802;28;20046;-80
2021/09/25 03:22:47;;;;;;;31.48;16.90;;;17.00;99.90;;;;;;4988509;28;20061;-81
2021/09/25 03:25:16;;;;;;;37.60;18.65;;;17.00;99.90;;;;;;4975389;28;20069;-80
2021/09/25 03:27:54;;;;;;;34.90;19.33;;;17.00;99.90;;;;;;4992985;28;20054;-80
2021/09/25 03:30:36;;;;;;;33.92;17.90;;;17.00;99.90;;;;;;4983731;28;20061;-81
2021/09/25 03:33:04;;;;;;;34.35;17.80;;;17.00;99.90;;;;;;4994571;28;20057;-81
2021/09/25 03:35:33;;;;;;;32.58;18.52;;;17.10;99.90;;;;;;4989361;28;20057;-82
2021/09/25 03:38:01;;;;;;;41.35;20.38;;;17.10;99.90;;;;;;4990546;28;20042;-81
2021/09/25 03:40:33;;;;;;;36.40;17.10;;;17.10;99.90;;;;;;4959606;28;20468;-81
2021/09/25 03:43:01;;;;;;;29.23;16.75;;;17.10;99.90;;;;;;4957907;29;20051;-81
2021/09/25 03:45:30;;;;;;;31.23;17.27;;;17.10;99.90;;;;;;4966336;28;20058;-81
2021/09/25 03:48:00;;;;;;;32.42;17.58;;;17.10;99.90;;;;;;5006072;23;20047;-92
2021/09/25 03:50:53;;;;;;;34.15;19.05;;;16.40;99.90;;;;;;4983903;28;20061;-93
2021/09/25 03:53:43;;;;;;;38.30;17.58;;;17.90;99.90;;;;;;4983220;28;20062;-93
2021/09/25 03:57:29;;;;;;;32.60;17.58;;;17.10;99.90;;;;;;5001143;28;20056;-93
2021/09/25 04:00:24;;;;;;;30.70;15.52;;;17.10;99.90;;;;;;5021477;28;20061;-93
2021/09/25 04:03:37;;;;;;;34.08;16.42;;;17.10;99.90;;;;;;5000312;28;20251;-93
2021/09/25 04:06:51;;;;;;;34.67;17.60;;;17.30;99.90;;;;;;5030642;28;20052;-93
2021/09/25 04:10:19;;;;;;;36.47;17.73;;;18.60;99.90;;;;;;5018391;23;20013;-92
2021/09/25 04:13:35;;;;;;;36.22;17.48;;;17.10;99.90;;;;;;5035205;28;20060;-92
2021/09/25 04:16:26;;;;;;;30.52;17.05;;;17.10;99.90;;;;;;5023675;28;20076;-93
2021/09/25 04:19:26;;;;;;;29.00;16.52;;;17.10;99.90;;;;;;5015482;28;20060;-92
2021/09/25 04:22:27;;;;;;;34.75;16.38;;;17.10;99.90;;;;;;5007261;28;20046;-93
2021/09/25 04:25:30;;;;;;;34.70;17.33;;;17.10;99.90;;;;;;5018251;28;20076;-93
2021/09/25 04:29:07;;;;;;;36.03;20.02;;;16.60;99.90;;;;;;5025584;28;20046;-92
2021/09/25 04:32:12;;;;;;;33.25;16.63;;;17.30;99.90;;;;;;5007908;28;20054;-92
2021/09/25 04:35:34;;;;;;;29.67;15.85;;;17.50;99.90;;;;;;4985412;28;20046;-93
2021/09/25 04:39:41;;;;;;;32.00;17.15;;;16.00;99.90;;;;;;4992232;28;20061;-93
2021/09/25 04:53:12;;;;;;;30.25;15.98;;;17.20;99.90;;;;;;4901013;27;5596488;-83
2021/09/25 04:55:42;;;;;;;30.25;15.57;;;17.20;99.90;;;;;;5065093;28;20053;-81
2021/09/25 04:58:11;;;;;;;28.67;14.30;;;17.20;99.90;;;;;;5091196;28;20028;-81
2021/09/25 05:00:40;;;;;;;33.50;16.00;;;17.20;99.90;;;;;;5075190;28;20043;-83
2021/09/25 05:03:09;;;;;;;30.17;15.75;;;17.20;99.90;;;;;;5046207;28;20045;-82
2021/09/25 05:05:38;;;;;;;32.47;14.70;;;17.20;99.90;;;;;;5051635;28;20164;-82
2021/09/25 05:08:07;;;;;;;33.40;15.98;;;18.00;99.90;;;;;;5064381;28;20049;-83
2021/09/25 05:10:36;;;;;;;33.22;16.55;;;17.80;99.90;;;;;;5071232;28;20045;-82
2021/09/25 05:13:04;;;;;;;31.10;14.25;;;17.20;99.90;;;;;;5071377;28;20048;-81
2021/09/25 05:15:33;;;;;;;29.83;13.75;;;17.20;99.90;;;;;;5062219;28;20053;-83
2021/09/25 05:18:03;;;;;;;27.73;14.55;;;17.20;99.90;;;;;;5044774;28;20057;-82
2021/09/25 05:20:31;;;;;;;33.03;15.80;;;17.20;99.90;;;;;;5070304;28;20062;-82
2021/09/25 05:22:59;;;;;;;32.80;15.25;;;17.20;99.90;;;;;;5073547;28;20050;-80
2021/09/25 05:25:27;;;;;;;33.13;14.52;;;17.20;99.90;;;;;;5063099;28;20037;-82
2021/09/25 05:27:59;;;;;;;34.72;17.30;;;17.20;99.90;;;;;;5067320;28;20064;-84
2021/09/25 05:30:29;;;;;;;27.02;14.82;;;17.20;99.90;;;;;;5071358;28;20058;-82
2021/09/25 05:32:58;;;;;;;29.00;14.30;;;16.80;99.90;;;;;;5050351;28;20044;-83
2021/09/25 05:35:27;;;;;;;27.95;13.73;;;17.20;99.90;;;;;;5064852;28;20045;-80
2021/09/25 05:37:55;;;;;;;29.40;13.65;;;17.20;99.90;;;;;;5048062;28;20062;-79
2021/09/25 05:40:26;;;;;;;26.52;13.18;;;17.20;99.90;;;;;;5077435;28;20056;-82
2021/09/25 05:42:58;;;;;;;24.70;12.35;;;17.20;99.90;;;;;;5056704;28;20044;-81
2021/09/25 05:45:28;;;;;;;22.75;11.95;;;17.20;99.90;;;;;;5069501;28;20044;-80
2021/09/25 05:47:56;;;;;;;27.30;13.90;;;17.20;99.90;;;;;;5045969;28;20059;-82
2021/09/25 05:50:26;;;;;;;28.73;15.07;;;17.20;99.90;;;;;;5059331;28;20524;-81
2021/09/25 05:52:58;;;;;;;28.30;15.27;;;17.20;99.90;;;;;;5066929;28;20045;-81
2021/09/25 05:55:27;;;;;;;33.42;14.50;;;17.20;99.90;;;;;;5034767;28;20045;-81
2021/09/25 05:58:03;;;;;;;26.48;14.25;;;17.20;99.90;;;;;;5031961;28;20063;-83
2021/09/25 06:00:32;;;;;;;26.83;12.75;;;17.20;99.90;;;;;;5048883;28;20047;-80
2021/09/25 06:03:01;;;;;;;29.33;14.25;;;17.10;99.90;;;;;;5028970;28;20059;-81
2021/09/25 06:05:31;;;;;;;26.95;12.63;;;17.10;99.90;;;;;;5063455;28;20052;-82
2021/09/25 06:08:03;;;;;;;22.30;10.20;;;17.10;99.90;;;;;;5064193;28;20044;-82
2021/09/25 06:10:34;;;;;;;24.75;13.05;;;17.20;99.90;;;;;;5034304;28;20081;-82
2021/09/25 06:13:03;;;;;;;29.33;15.13;;;17.20;99.90;;;;;;5030726;28;20048;-84
2021/09/25 06:15:32;;;;;;;25.33;13.65;;;17.20;99.90;;;;;;5065071;28;20067;-83
2021/09/25 06:18:00;;;;;;;30.55;13.93;;;17.20;99.90;;;;;;5046874;28;20041;-83
2021/09/25 06:20:31;;;;;;;23.30;13.23;;;17.10;99.90;;;;;;5032263;28;20053;-82
2021/09/25 06:22:59;;;;;;;30.17;14.52;;;17.30;99.90;;;;;;5030157;28;20054;-85
2021/09/25 06:25:29;;;;;;;30.35;14.23;;;17.20;99.90;;;;;;5048716;28;20053;-82
2021/09/25 06:27:58;;;;;;;26.00;12.82;;;17.30;99.90;;;;;;5032237;28;20053;-83
2021/09/25 06:30:27;;;;;;;25.67;11.20;;;17.30;99.90;;;;;;5035675;28;20542;-82
2021/09/25 06:32:56;;;;;;;23.50;11.60;;;17.30;99.90;;;;;;5058500;28;20056;-81
2021/09/25 06:35:30;;;;;;;25.02;12.80;;;17.30;99.90;;;;;;5031054;28;20049;-81
2021/09/25 06:37:58;;;;;;;24.65;12.45;;;17.30;99.90;;;;;;5047931;28;20052;-82
2021/09/25 06:40:26;;;;;;;26.02;12.55;;;17.30;99.90;;;;;;5064832;28;20045;-82
2021/09/25 06:42:55;;;;;;;27.98;13.27;;;17.30;99.90;;;;;;5062982;28;20049;-83
2021/09/25 06:45:32;;;;;;;27.30;15.10;;;17.30;99.90;;;;;;5045262;28;20055;-81
2021/09/25 06:48:01;;;;;;;25.73;12.05;;;17.30;99.90;;;;;;5066180;28;20049;-82
2021/09/25 06:50:29;;;;;;;27.15;13.05;;;17.30;99.90;;;;;;5045675;28;20051;-84
2021/09/25 06:52:58;;;;;;;28.00;13.88;;;17.40;99.90;;;;;;5041564;28;20041;-83
2021/09/25 06:55:28;;;;;;;30.10;13.18;;;17.40;99.90;;;;;;5021203;28;20064;-82
2021/09/25 06:57:57;;;;;;;33.50;12.60;;;17.40;99.90;;;;;;5031546;28;20044;-82
2021/09/25 07:00:26;;;;;;;33.25;14.38;;;17.40;99.90;;;;;;5047790;28;20583;-81
2021/09/25 07:02:54;;;;;;;26.77;13.63;;;17.40;99.90;;;;;;5028694;28;20053;-84
2021/09/25 07:05:23;;;;;;;30.40;13.13;;;17.40;99.90;;;;;;5025925;28;20389;-83
2021/09/25 07:07:52;;;;;;;26.73;12.30;;;17.10;99.90;;;;;;5023844;28;20054;-82
2021/09/25 07:10:22;;;;;;;24.63;12.23;;;17.50;99.90;;;;;;5061024;28;20397;-82
2021/09/25 07:12:51;;;;;;;25.13;13.45;;;17.50;99.90;;;;;;5045945;28;20045;-83
2021/09/25 07:15:25;;;;;;;28.58;13.27;;;17.50;99.90;;;;;;5044891;28;20052;-83
2021/09/25 07:17:54;;;;;;;24.60;12.43;;;16.80;99.90;;;;;;5031116;28;20055;-82
2021/09/25 07:20:26;;;;;;;18.58;8.50;;;17.60;99.90;;;;;;5014366;28;20049;-82
2021/09/25 07:22:55;;;;;;;17.30;8.45;;;17.70;99.90;;;;;;5041551;28;20052;-84
2021/09/25 07:25:24;;;;;;;19.27;8.88;;;17.70;99.90;;;;;;5042607;28;20138;-82
2021/09/25 07:27:52;;;;;;;23.58;11.13;;;17.60;99.90;;;;;;5062847;28;20055;-80
2021/09/25 07:30:22;;;;;;;20.50;9.23;;;17.70;99.90;;;;;;5025821;28;20053;-83
2021/09/25 07:32:52;;;;;;;24.17;10.20;;;17.70;99.90;;;;;;5028017;28;20316;-81
2021/09/25 07:35:21;;;;;;;16.95;7.47;;;17.80;99.90;;;;;;5056708;28;20041;-81
2021/09/25 07:37:50;;;;;;;19.98;9.95;;;17.70;99.90;;;;;;5044463;28;20165;-81
2021/09/25 07:40:22;;;;;;;23.42;10.85;;;18.50;99.90;;;;;;5008896;28;20041;-82
2021/09/25 07:42:52;;;;;;;20.02;8.75;;;17.80;99.90;;;;;;5038661;28;20052;-82
2021/09/25 07:45:22;;;;;;;18.88;8.48;;;17.80;99.90;;;;;;5026648;28;20071;-82
2021/09/25 07:47:56;;;;;;;17.75;7.85;;;17.80;99.90;;;;;;5026957;28;20064;-85
2021/09/25 07:50:27;;;;;;;18.85;7.30;;;17.80;99.90;;;;;;5024360;28;20060;-89
2021/09/25 07:53:41;;;;;;;13.35;6.90;;;17.80;99.90;;;;;;5013239;28;20060;-85
2021/09/25 07:56:47;;;;;;;14.57;7.03;;;17.90;99.90;;;;;;5044630;28;20037;-90
2021/09/25 07:59:17;;;;;;;11.63;6.07;;;17.90;99.90;;;;;;5025177;28;20403;-91
2021/09/25 08:01:51;;;;;;;16.02;7.75;;;17.90;99.90;;;;;;5014673;28;20065;-88
2021/09/25 08:04:24;;;;;;;11.75;5.28;;;17.90;99.90;;;;;;5013063;28;20053;-91
2021/09/25 08:07:04;;;;;;;10.50;5.57;;;17.90;99.90;;;;;;5043802;28;20040;-88
2021/09/25 08:09:49;;;;;;;10.88;5.25;;;17.90;99.90;;;;;;5027568;28;20297;-88
2021/09/25 08:12:21;;;;;;;9.48;4.57;;;17.80;99.90;;;;;;5049063;28;20041;-89
2021/09/25 08:14:51;;;;;;;9.50;4.53;;;17.80;99.90;;;;;;5030354;28;20058;-89
2021/09/25 08:17:22;;;;;;;9.93;4.57;;;17.90;99.90;;;;;;5025615;28;20050;-89
2021/09/25 08:19:59;;;;;;;9.45;4.72;;;17.90;99.90;;;;;;5037572;28;20059;-86
2021/09/25 08:22:55;;;;;;;10.80;5.47;;;17.90;99.90;;;;;;5059843;28;20056;-87
2021/09/25 08:25:36;;;;;;;8.10;4.88;;;18.00;99.90;;;;;;5042852;28;20045;-85
2021/09/25 08:28:37;;;;;;;8.13;4.90;;;18.00;99.90;;;;;;5033485;28;20041;-86
2021/09/25 08:31:07;;;;;;;8.38;3.97;;;18.10;99.90;;;;;;5028247;28;20051;-85
2021/09/25 08:33:38;;;;;;;7.40;3.72;;;18.20;99.90;;;;;;5048767;28;20048;-85
2021/09/25 08:36:19;;;;;;;7.63;4.35;;;18.20;99.90;;;;;;5030351;28;20049;-86
2021/09/25 08:39:08;;;;;;;13.63;4.57;;;18.20;99.90;;;;;;5047317;28;20055;-86
2021/09/25 08:41:40;;;;;;;11.85;5.03;;;18.20;99.90;;;;;;5032338;28;20059;-84
2021/09/25 08:44:12;;;;;;;10.20;3.92;;;18.20;99.90;;;;;;5014003;28;20056;-84
2021/09/25 08:46:44;;;;;;;10.98;4.30;;;18.20;99.90;;;;;;5039376;28;20041;-85
2021/09/25 08:49:17;;;;;;;9.25;4.28;;;18.30;99.90;;;;;;5051919;28;20053;-85
2021/09/25 08:51:51;;;;;;;16.63;5.78;;;18.60;99.90;;;;;;5044168;28;20043;-84
2021/09/25 08:54:23;;;;;;;13.60;5.50;;;18.40;99.90;;;;;;5039637;28;20049;-83
2021/09/25 08:56:53;;;;;;;11.80;5.00;;;18.40;99.90;;;;;;5077859;28;20041;-83
2021/09/25 08:59:25;;;;;;;12.77;5.10;;;18.40;99.90;;;;;;5080966;28;20045;-83
2021/09/25 09:02:18;;;;;;;15.70;5.63;;;18.50;99.90;;;;;;5058510;28;20037;-83
2021/09/25 09:04:57;;;;;;;13.68;6.30;;;18.50;99.90;;;;;;5049138;28;20051;-88
2021/09/25 09:07:29;;;;;;;14.43;6.82;;;18.50;99.90;;;;;;5078757;28;20037;-85
2021/09/25 09:10:36;;;;;;;14.07;5.95;;;18.60;99.90;;;;;;5052843;28;20052;-90
2021/09/25 09:13:14;;;;;;;15.77;7.10;;;18.50;99.90;;;;;;5061616;28;20041;-85
2021/09/25 09:15:53;;;;;;;13.00;6.32;;;18.60;99.90;;;;;;5060352;28;20056;-83
2021/09/25 09:18:31;;;;;;;13.63;6.03;;;18.60;99.90;;;;;;5064389;28;20047;-81
2021/09/25 09:21:54;;;;;;;;;;;;;;;;;;;;;
2021/09/25 09:24:26;;;;;;;9.43;4.55;;;18.60;99.90;;;;;;5080667;28;20040;-83
2021/09/25 09:26:54;;;;;;;;;;;18.70;99.90;;;;;;5035991;28;20060;-84
2021/09/25 09:29:32;;;;;;;7.10;3.17;;;18.80;99.90;;;;;;5072040;28;19920;-81
2021/09/25 09:32:13;;;;;;;6.80;3.42;;;19.80;99.90;;;;;;5032188;28;20059;-82
2021/09/25 09:34:43;;;;;;;9.48;3.33;;;19.30;99.90;;;;;;5067905;28;20092;-80
2021/09/25 09:37:16;;;;;;;7.03;2.97;;;19.00;99.90;;;;;;5048584;28;20048;-80
2021/09/25 09:40:15;;;;;;;8.07;3.50;;;19.00;99.90;;;;;;5068036;28;20059;-82
2021/09/25 09:43:17;;;;;;;13.27;3.80;;;19.00;99.90;;;;;;5069246;28;20044;-80
2021/09/25 09:45:57;;;;;;;14.30;4.63;;;19.00;99.90;;;;;;5036605;28;20058;-84
2021/09/25 09:48:41;;;;;;;7.75;3.85;;;19.00;99.90;;;;;;5081533;28;20049;-81
2021/09/25 09:51:34;;;;;;;8.07;3.35;;;19.10;99.90;;;;;;5061754;28;20048;-81
2021/09/25 09:54:35;;;;;;;6.50;3.10;;;19.10;99.90;;;;;;5056039;23;20049;-81
2021/09/25 09:57:31;;;;;;;7.93;3.80;;;19.20;99.90;;;;;;5079147;28;20047;-82
2021/09/25 10:00:26;;;;;;;9.02;3.72;;;19.20;99.90;;;;;;5036017;28;20053;-81
2021/09/25 10:02:55;;;;;;;6.78;3.75;;;19.30;99.90;;;;;;5070407;28;20045;-83
2021/09/25 10:05:28;;;;;;;9.10;3.80;;;19.20;99.90;;;;;;5061105;28;20059;-81
2021/09/25 10:08:03;;;;;;;8.38;3.65;;;19.30;99.90;;;;;;5093340;28;20044;-92
2021/09/25 10:10:35;;;;;;;9.52;3.30;;;19.40;99.90;;;;;;5044750;28;20044;-83
2021/09/25 10:13:19;;;;;;;8.73;4.00;;;19.50;99.90;;;;;;5076653;28;20052;-82
2021/09/25 10:15:57;;;;;;;6.45;3.35;;;19.80;99.90;;;;;;5077173;28;20059;-84
2021/09/25 10:18:37;;;;;;;8.40;3.63;;;19.50;99.90;;;;;;5067417;28;20044;-81
2021/09/25 10:21:16;;;;;;;6.80;3.55;;;18.80;99.90;;;;;;5080234;28;20044;-81
2021/09/25 10:23:55;;;;;;;8.32;3.33;;;19.40;99.90;;;;;;5059685;28;20051;-83
2021/09/25 10:26:44;;;;;;;7.63;3.95;;;19.50;99.90;;;;;;5069497;28;20041;-80
2021/09/25 10:29:23;;;;;;;9.88;3.80;;;19.60;99.90;;;;;;5067663;28;20040;-85
2021/09/25 10:32:22;;;;;;;6.80;3.00;;;19.60;99.90;;;;;;5090053;28;20045;-83
2021/09/25 10:35:17;;;;;;;5.32;2.72;;;19.60;99.90;;;;;;5093202;28;20255;-83
2021/09/25 10:38:02;;;;;;;6.57;2.67;;;19.70;99.90;;;;;;5067272;28;20041;-89
2021/09/25 10:41:20;;;;;;;5.65;2.85;;;19.70;99.90;;;;;;5081764;28;20049;-85
2021/09/25 10:43:50;;;;;;;8.82;3.35;;;19.60;99.90;;;;;;5082968;28;20055;-83
2021/09/25 10:46:39;;;;;;;8.45;3.35;;;19.70;99.90;;;;;;5065465;28;20049;-83
2021/09/25 10:49:14;;;;;;;5.10;2.65;;;19.70;99.90;;;;;;5061332;28;20044;-80
2021/09/25 10:51:52;;;;;;;6.50;3.88;;;19.70;99.90;;;;;;5088077;28;20048;-83
2021/09/25 10:55:32;;;;;;;9.30;3.03;;;19.80;99.90;;;;;;5065971;28;20056;-88
2021/09/25 10:58:21;;;;;;;5.30;3.03;;;19.80;99.90;;;;;;4993856;28;20066;-79
2021/09/25 11:00:59;;;;;;;11.15;3.15;;;19.80;99.90;;;;;;5001761;28;20046;-86
2021/09/25 11:03:57;;;;;;;9.50;3.00;;;19.90;99.90;;;;;;5065573;28;20040;-87
2021/09/25 11:06:47;;;;;;;6.00;3.03;;;19.90;99.90;;;;;;5063001;28;20048;-84
2021/09/25 11:09:29;;;;;;;8.25;3.20;;;19.90;99.90;;;;;;5051446;28;20040;-81
2021/09/25 11:12:06;;;;;;;6.53;4.13;;;20.00;99.90;;;;;;5078371;28;20051;-85
2021/09/25 11:14:56;;;;;;;6.82;2.85;;;20.00;99.90;;;;;;5041854;28;20067;-84
2021/09/25 11:17:36;;;;;;;6.80;3.40;;;20.00;99.90;;;;;;5069772;28;20512;-83
2021/09/25 11:20:09;;;;;;;6.50;3.53;;;20.00;99.90;;;;;;5087863;28;20033;-83
2021/09/25 11:22:50;;;;;;;8.27;4.32;;;20.00;99.90;;;;;;5072989;28;20051;-83
2021/09/25 11:25:22;;;;;;;11.85;4.05;;;19.90;99.90;;;;;;5049309;28;20059;-82
2021/09/25 11:28:04;;;;;;;7.32;3.80;;;19.90;99.90;;;;;;5051560;28;20063;-79
2021/09/25 11:31:09;;;;;;;5.95;3.53;;;19.90;99.90;;;;;;5052044;28;20056;-84
2021/09/25 11:33:43;;;;;;;10.25;4.43;;;19.90;99.90;;;;;;5057611;28;20041;-83
2021/09/25 11:36:20;;;;;;;9.40;4.05;;;19.90;99.90;;;;;;5028708;28;20053;-80
2021/09/25 11:38:50;;;;;;;9.40;4.80;;;19.90;99.90;;;;;;5059334;28;20056;-83
2021/09/25 11:41:22;;;;;;;12.07;5.22;;;19.90;99.90;;;;;;5061433;28;20048;-80
2021/09/25 11:43:57;;;;;;;13.02;5.55;;;19.90;99.90;;;;;;5076385;28;20044;-83
2021/09/25 11:46:37;;;;;;;12.05;5.15;;;19.80;99.90;;;;;;5056351;28;20079;-81
2021/09/25 11:49:42;;;;;;;13.10;4.53;;;19.80;99.90;;;;;;5033463;28;20068;-85
2021/09/25 11:52:15;;;;;;;10.13;4.57;;;19.80;99.90;;;;;;5050240;28;20052;-83
2021/09/25 11:54:59;;;;;;;12.38;6.00;;;19.80;99.90;;;;;;5047101;28;20053;-82
2021/09/25 11:57:34;;;;;;;11.00;5.32;;;19.80;99.90;;;;;;5052560;28;20045;-83
2021/09/25 12:00:19;;;;;;;15.90;6.18;;;19.90;99.90;;;;;;5030219;28;20063;-83
2021/09/25 12:02:50;;;;;;;11.60;5.90;;;20.20;99.90;;;;;;5037730;28;20052;-84
2021/09/25 12:05:52;;;;;;;14.82;6.55;;;19.90;99.90;;;;;;5074698;28;20044;-82
2021/09/25 12:08:40;;;;;;;10.98;5.30;;;20.60;99.90;;;;;;5017019;28;20063;-82
2021/09/25 12:11:13;;;;;;;13.60;6.68;;;19.90;99.90;;;;;;5044123;28;20051;-82
2021/09/25 12:13:57;;;;;;;13.88;5.80;;;19.90;99.90;;;;;;5051160;28;20049;-84
2021/09/25 12:16:26;;;;;;;12.77;5.80;;;19.90;99.90;;;;;;5028866;28;20048;-84
2021/09/25 12:18:55;;;;;;;14.73;6.03;;;19.90;99.90;;;;;;5031439;28;20103;-83
2021/09/25 12:21:26;;;;;;;15.77;6.50;;;19.90;99.90;;;;;;5042662;28;20051;-84
2021/09/25 12:24:05;;;;;;;14.60;6.40;;;19.90;99.90;;;;;;5046974;28;20049;-85
2021/09/25 12:26:55;;;;;;;14.00;6.03;;;19.90;99.90;;;;;;5037977;28;20043;-85
2021/09/25 12:29:33;;;;;;;11.27;6.00;;;20.00;99.90;;;;;;5033518;28;20056;-83
2021/09/25 12:32:07;;;;;;;14.20;6.88;;;20.10;99.90;;;;;;5060277;28;20648;-83
2021/09/25 12:34:48;;;;;;;14.45;6.47;;;19.90;99.90;;;;;;5036377;28;20041;-82
2021/09/25 12:37:17;;;;;;;15.15;6.85;;;20.10;99.90;;;;;;5056320;28;20049;-86
2021/09/25 12:39:51;;;;;;;13.40;6.50;;;20.10;99.90;;;;;;5062450;28;20053;-86
2021/09/25 12:42:27;;;;;;;12.35;5.45;;;20.20;99.90;;;;;;5021275;28;20050;-85
2021/09/25 12:45:00;;;;;;;11.80;6.38;;;20.20;99.90;;;;;;5051010;28;20116;-84
2021/09/25 12:47:33;;;;;;;16.08;5.38;;;20.20;99.90;;;;;;5064118;28;20049;-84
2021/09/25 12:50:28;;;;;;;15.60;6.60;;;20.20;99.90;;;;;;5031031;28;20045;-83
2021/09/25 12:53:25;;;;;;;15.07;6.72;;;20.10;99.90;;;;;;5013911;28;20041;-82
2021/09/25 12:56:15;;;;;;;15.80;6.90;;;20.30;99.90;;;;;;5074606;28;20049;-83
2021/09/25 12:58:53;;;;;;;13.20;6.53;;;20.20;99.90;;;;;;5037554;28;20067;-82
2021/09/25 13:01:44;;;;;;;15.10;7.07;;;20.20;99.90;;;;;;5056316;28;20051;-83
2021/09/25 13:04:47;;;;;;;16.25;7.95;;;20.20;99.90;;;;;;5057620;28;20041;-81
2021/09/25 13:07:36;;;;;;;13.45;6.60;;;20.20;99.90;;;;;;5069230;28;20059;-83
2021/09/25 13:10:09;;;;;;;14.98;6.78;;;19.30;99.90;;;;;;5064151;28;20041;-81
2021/09/25 13:12:56;;;;;;;12.55;6.60;;;20.20;99.90;;;;;;5057163;28;20928;-84
2021/09/25 13:15:33;;;;;;;15.20;6.80;;;20.20;99.90;;;;;;5054446;28;20056;-84
2021/09/25 13:18:06;;;;;;;12.00;6.80;;;20.20;99.90;;;;;;5040797;28;20286;-83
2021/09/25 13:20:36;;;;;;;13.20;6.32;;;20.20;99.90;;;;;;5070739;28;20045;-83
2021/09/25 13:23:18;;;;;;;13.18;5.93;;;20.20;99.90;;;;;;5041879;28;20043;-82
2021/09/25 13:25:46;;;;;;;14.38;6.05;;;20.20;99.90;;;;;;5052776;28;20060;-83
2021/09/25 13:28:16;;;;;;;13.43;5.70;;;20.20;99.90;;;;;;5051416;28;20029;-82
2021/09/25 13:31:08;;;;;;;10.93;6.25;;;20.20;99.90;;;;;;5053919;28;20048;-83
2021/09/25 13:33:37;;;;;;;;;;;20.20;99.90;;;;;;5056521;28;20044;-84
2021/09/25 13:36:06;;;;;;;11.60;4.80;;;20.10;99.90;;;;;;5047061;28;19920;-84
2021/09/25 13:38:36;;;;;;;9.43;5.03;;;20.20;99.90;;;;;;5042619;28;20041;-83
2021/09/25 13:41:07;;;;;;;9.43;4.75;;;20.10;99.90;;;;;;5035811;28;20056;-83